Latest Coastal Weather Observations for Truscott

IDD60701

Issued at 5:11 am CST Sunday 22 January 2017 (issued every 10 minutes, with the page automatically refreshed every 10 minutes)

About coastal observations | Map of coastal stations | Coastal observations for NT | Marine services | Other Formats
Station Details ID: 001020 Name: TRUSCOTT Lat: -14.09 Lon: 126.39 Height: 51.0 m
Data from the previous 72 hours. | See also: Recent months at Truscott
Date/Time
CST
Temp
°C
Wind Pressure Rain since
9am
mm
Weather Cloud Vis
km
Sea
Height
m
Swell
Dir  Spd
kts
Gust
kts
hPa Trend Height
m
Period
s
Dir
22/05:00am 27.8 W 7 11 1008.1 - 0.2 - Partly cloudy 10 - - - -
22/04:30am 27.9 W 7 10 1008.0 - 0.2 - Cloudy 10 - - - -
22/04:00am 27.8 WNW 7 9 1008.3 - 0.2 - - 10 - - - -
22/03:30am 27.9 WNW 6 8 1008.3 - 0.2 - - 10 - - - -
22/03:00am 27.8 WNW 7 11 1008.6 - 0.2 - - 10 - - - -
22/02:30am 27.8 WNW 5 7 1008.7 - 0.2 - Partly cloudy 10 - - - -
22/02:00am 27.9 WNW 7 10 1008.8 - 0.2 - Partly cloudy 10 - - - -
22/01:30am 27.9 WNW 6 9 1009.1 - 0.2 - Cloudy 10 - - - -
22/01:00am 27.7 NW 6 8 1009.3 - 0.2 - Partly cloudy 10 - - - -
22/12:30am 28.0 WNW 6 9 1009.4 - 0.2 - Partly cloudy 10 - - - -
22/12:00am 28.0 WNW 6 8 1009.6 - 0.2 - - 10 - - - -
 
Date/Time
CST
Temp
°C
Wind Pressure Rain since
9am
mm
Weather Cloud Vis
km
Sea
Height
m
Swell
Dir  Spd
kts
Gust
kts
hPa Trend Height
m
Period
s
Dir
21/11:30pm 28.0 WNW 7 10 1009.9 - 0.2 - - 10 - - - -
21/11:00pm 27.9 WNW 7 11 1009.7 - 0.2 - - 10 - - - -
21/10:30pm 27.9 WNW 6 10 1009.5 - 0.2 - Mostly cloudy 10 - - - -
21/10:00pm 27.9 WNW 6 8 1008.9 - 0.2 - - 10 - - - -
21/09:30pm 28.1 W 6 8 1008.4 - 0.2 - - 10 - - - -
21/09:00pm 28.2 W 5 7 1008.2 - 0.2 - - 10 - - - -
21/08:30pm 28.3 WSW 5 7 1008.0 - 0.2 - - 10 - - - -
21/08:00pm 28.3 W 6 8 1007.8 - 0.2 - - 10 - - - -
21/07:30pm 28.7 W 7 10 1007.5 - 0.2 - Mostly cloudy 10 - - - -
21/07:00pm 29.0 W 8 13 1007.3 - 0.2 - - 10 - - - -
21/06:30pm 29.2 WNW 9 13 1007.2 - 0.2 - - 10 - - - -
21/06:00pm 29.5 WNW 9 13 1007.1 - 0.2 - - 10 - - - -
21/05:30pm 29.8 WNW 9 14 1006.8 - 0.2 - - 10 - - - -
21/05:00pm 30.1 NW 9 14 1006.5 - 0.2 - - 10 - - - -
21/04:30pm 30.7 NW 11 17 1006.7 - 0.2 - Mostly clear 10 - - - -
21/04:00pm 30.4 NW 12 18 1006.7 - 0.2 - Partly cloudy 10 - - - -
21/03:30pm 30.4 NW 10 15 1007.3 - 0.2 - Partly cloudy 10 - - - -
21/03:00pm 30.4 WNW 8 13 1007.5 - 0.2 - Partly cloudy 10 - - - -
21/02:30pm 30.5 WNW 8 11 1007.9 - 0.2 - Partly cloudy 10 - - - -
21/02:00pm 30.8 W 8 12 1008.2 - 0.2 - - 10 - - - -
21/01:30pm 29.8 WNW 8 11 1008.6 - 0.2 - Mostly clear 10 - - - -
21/01:00pm 29.5 W 8 14 1009.0 - 0.2 - Partly cloudy 10 - - - -
21/12:30pm 29.4 WSW 5 9 1009.2 - 0.2 - Partly cloudy 10 - - - -
21/12:00pm 28.9 WSW 6 9 1009.5 - 0.2 - Partly cloudy 10 - - - -
21/11:30am 28.1 WSW 5 9 1009.6 - 0.2 - Partly cloudy 10 - - - -
21/11:27am 27.9 WSW 5 9 1009.6 - 0.2 - Partly cloudy 10 - - - -
21/11:13am 28.0 WSW 7 10 1009.6 - 0.2 - Partly cloudy 10 - - - -
21/11:00am 27.8 WSW 6 10 1009.6 - 0.2 - Partly cloudy 10 - - - -
21/10:48am 27.8 SW 7 10 1009.6 - 0.2 - Partly cloudy 10 - - - -
21/10:30am 27.0 W 5 7 1009.6 - 0.6 - Cloudy 10 - - - -
21/10:07am 26.0 W 7 11 1009.9 - 0.6 - Partly cloudy 10 - - - -
21/10:00am 25.7 WSW 7 11 1010.0 - 0.6 - Partly cloudy 10 - - - -
21/09:39am 25.7 W 8 11 1009.9 - 0.6 - Partly cloudy 10 - - - -
21/09:30am 25.9 W 8 13 1009.9 - 0.6 - Partly cloudy 10 - - - -
21/09:00am 25.6 W 7 11 1010.2 - 0.6 - Partly cloudy 10 - - - -
21/08:52am 25.6 W 5 8 1010.3 - 0.6 - Partly cloudy 10 - - - -
21/08:30am 25.4 W 8 10 1010.0 - 0.6 - Partly cloudy 10 - - - -
21/08:00am 25.3 SW 5 8 1009.5 - 0.6 - - 10 - - - -
21/07:30am 25.3 SSW 8 11 1009.1 - 0.6 - Mostly cloudy 10 - - - -
21/07:00am 26.2 CALM 0 0 1008.4 - 0.6 - Partly cloudy 10 - - - -
21/06:30am 26.1 CALM 0 0 1008.0 - 0.6 - Partly cloudy 10 - - - -
21/06:00am 26.2 CALM 0 0 1007.6 - 0.6 - Partly cloudy 10 - - - -
21/05:30am 26.6 CALM 0 3 1007.3 - 0.6 - Partly cloudy 10 - - - -
21/05:00am 27.1 W 5 6 1007.2 - 0.6 - Partly cloudy 10 - - - -
21/04:30am 26.9 WNW 5 6 1007.0 - 0.6 - Cloudy 10 - - - -
21/04:00am 26.7 NW 3 4 1007.1 - 0.6 - Partly cloudy 10 - - - -
21/03:30am 27.1 W 5 9 1007.1 - 0.6 - Partly cloudy 10 - - - -
21/03:00am 27.2 W 5 6 1006.9 - 0.6 - Partly cloudy 10 - - - -
21/02:30am 27.1 W 4 6 1007.0 - 0.6 - Partly cloudy 10 - - - -
21/02:00am 27.2 W 5 7 1007.1 - 0.6 - - 10 - - - -
21/01:30am 27.3 WNW 7 10 1007.5 - 0.6 - Cloudy 10 - - - -
21/01:00am 27.3 WNW 7 11 1007.6 - 0.6 - - 10 - - - -
21/12:30am 27.3 WNW 7 10 1007.8 - 0.6 - - 10 - - - -
21/12:00am 27.2 W 6 9 1008.1 - 0.6 - - 10 - - - -
 
Date/Time
CST
Temp
°C
Wind Pressure Rain since
9am
mm
Weather Cloud Vis
km
Sea
Height
m
Swell
Dir  Spd
kts
Gust
kts
hPa Trend Height
m
Period
s
Dir
20/11:30pm 26.7 W 5 8 1008.2 - 0.6 - - 10 - - - -
20/11:00pm 26.4 WNW 8 13 1008.1 - 0.6 - Partly cloudy 10 - - - -
20/10:30pm 27.6 WNW 5 7 1007.7 - 0.6 - Mostly cloudy 10 - - - -
20/10:00pm 27.7 W 5 7 1007.5 - 0.6 - - 10 - - - -
20/09:30pm 27.7 W 5 8 1007.4 - 0.6 - - 10 - - - -
20/09:00pm 27.8 W 6 9 1007.1 - 0.6 - - 10 - - - -
20/08:30pm 27.8 W 7 9 1007.0 - 0.6 - - 10 - - - -
20/08:00pm 27.8 WSW 7 10 1006.7 - 0.6 - - 10 - - - -
20/07:30pm 28.1 W 8 12 1006.5 - 0.6 - Mostly cloudy 10 - - - -
20/07:00pm 28.5 W 9 15 1006.0 - 0.6 - - 10 - - - -
20/06:30pm 28.8 WNW 9 13 1005.7 - 0.6 - Partly cloudy 10 - - - -
20/06:00pm 28.8 W 9 13 1005.5 - 0.6 - Partly cloudy 10 - - - -
20/05:32pm 28.2 W 9 14 1005.4 - 0.6 - Partly cloudy 10 - - - -
20/05:30pm 28.1 WSW 9 14 1005.4 - 0.6 - Partly cloudy 10 - - - -
20/05:10pm 28.3 W 9 12 1005.5 - 0.6 - Partly cloudy 10 - - - -
20/05:00pm 28.1 WNW 8 11 1005.6 - 0.6 - Partly cloudy 10 - - - -
20/04:30pm 27.7 WNW 9 13 1005.9 - 0.6 - Cloudy 10 - - - -
20/04:00pm 26.9 NW 9 13 1006.2 - 0.6 - - 10 - - - -
20/03:30pm 26.0 NW 8 11 1006.4 - 0.6 - Partly cloudy 10 - - - -
20/03:00pm 28.4 NW 11 17 1006.6 - 0.0 - Partly cloudy 10 - - - -
20/02:30pm 28.8 NNW 9 16 1006.9 - 0.0 - Partly cloudy 10 - - - -
20/02:00pm 28.6 NW 9 15 1006.8 - 0.0 - Partly cloudy 10 - - - -
20/01:30pm 29.4 WNW 9 16 1007.1 - 0.0 - Mostly cloudy 10 - - - -
20/01:20pm 28.4 NNW 9 13 1007.2 - 0.0 - Partly cloudy 10 - - - -
20/01:10pm 28.2 NNW 7 13 1007.4 - 0.0 - Partly cloudy 10 - - - -
20/01:00pm 28.2 NNW 9 16 1007.5 - 0.0 - Partly cloudy 10 - - - -
20/12:30pm 28.4 NW 8 14 1007.9 - 0.0 - Partly cloudy 10 - - - -
20/12:00pm 27.5 NW 8 12 1008.2 - 0.0 - Partly cloudy 10 - - - -
20/11:30am 27.7 NNW 11 16 1008.2 - 0.0 - Partly cloudy 10 - - - -
20/11:00am 28.4 NNW 10 19 1008.3 - 0.0 - Partly cloudy 10 - - - -
20/10:30am 28.4 NNW 11 15 1008.2 - - - Partly cloudy 10 - - - -
20/10:00am 28.7 NNW 9 13 1008.3 - - - Partly cloudy 10 - - - -
20/09:30am 28.3 NNW 9 16 1007.9 - - - Partly cloudy 10 - - - -
20/09:00am 28.6 NW 5 8 1007.6 - - - Partly cloudy 10 - - - -
20/08:30am 28.1 NW 5 9 1007.6 - - - Partly cloudy 10 - - - -
20/08:00am 26.5 NNE 1 3 1007.3 - - - - 10 - - - -
20/07:30am 25.9 NE 1 4 1007.0 - - - Partly cloudy 10 - - - -
20/07:28am 25.9 NE 1 4 1007.0 - - - Partly cloudy 10 - - - -
20/07:17am 25.8 CALM 0 0 1007.0 - - - Partly cloudy 10 - - - -
20/07:00am 25.8 SSE 1 3 1006.6 - - - Partly cloudy 10 - - - -
20/06:30am 25.7 CALM 0 0 1006.1 - - - Partly cloudy 10 - - - -
20/06:00am 25.7 CALM 0 0 1005.7 - - - - 10 - - - -
20/05:30am 25.9 CALM 0 0 1005.7 - - - - 10 - - - -
20/05:00am 26.2 NNW 1 3 1005.7 - - - - 10 - - - -
20/04:30am 26.5 NNW 5 8 1005.8 - 0.6 - Cloudy 10 - - - -
20/04:00am 26.4 NW 3 5 1006.1 - - - Partly cloudy 10 - - - -
20/03:30am 26.1 NW 3 5 1006.4 - - - Partly cloudy 10 - - - -
20/03:00am 26.1 NNW 5 7 1006.4 - - - Partly cloudy 10 - - - -
20/02:30am 25.9 SW 4 5 1006.4 - - - - 10 - - - -
20/02:00am 25.5 WSW 4 6 1006.7 - - - Partly cloudy 10 - - - -
20/01:30am 25.6 WSW 5 9 1006.8 - - Recent precip. Cloudy 10 - - - -
20/01:00am 26.4 WSW 10 16 1007.0 - - - Partly cloudy 10 - - - -
20/12:30am 27.0 NW 4 6 1007.3 - - - - 10 - - - -
20/12:00am 27.2 NW 7 11 1007.6 - - - Partly cloudy 10 - - - -
 
Date/Time
CST
Temp
°C
Wind Pressure Rain since
9am
mm
Weather Cloud Vis
km
Sea
Height
m
Swell
Dir  Spd
kts
Gust
kts
hPa Trend Height
m
Period
s
Dir
19/11:30pm 26.9 NW 5 6 1007.8 - - - Partly cloudy 10 - - - -
19/11:00pm 26.9 NW 7 11 1008.0 - - - Partly cloudy 10 - - - -
19/10:30pm 27.8 NW 6 11 1007.9 - 0.0 - Cloudy 10 - - - -
19/10:00pm 27.7 WNW 5 8 1007.8 - - - - 10 - - - -
19/09:30pm 27.8 WNW 6 9 1007.4 - - - - 10 - - - -
19/09:00pm 27.9 WNW 8 12 1007.0 - - - Partly cloudy 10 - - - -
19/08:30pm 27.9 WNW 7 11 1006.6 - - - Partly cloudy 10 - - - -
19/08:00pm 27.5 WSW 3 5 1006.2 - - - Partly cloudy 10 - - - -
19/07:30pm 27.7 SW 4 7 1005.7 - - - Cloudy 10 - - - -
19/07:00pm 28.2 WSW 7 11 1005.3 - - - Partly cloudy 10 - - - -
19/06:30pm 28.4 W 8 11 1005.0 - - - Partly cloudy 10 - - - -
19/06:00pm 28.8 W 7 11 1005.0 - - - Partly cloudy 10 - - - -
19/05:30pm 28.6 WSW 6 8 1005.1 - - - Partly cloudy 10 - - - -
19/05:00pm 28.3 W 6 9 1005.4 - - - Partly cloudy 10 - - - -
19/04:30pm 28.2 NW 8 14 1005.8 - - - - 10 - - - -
19/10:00am 24.8 SE 1 3 1009.9 - 18.6 - - 10 - - - -
19/09:30am 24.5 CALM 0 0 1010.3 - 18.6 - - 10 - - - -
19/09:00am 24.2 S 5 6 1010.3 - 18.6 - Partly cloudy 10 - - - -
19/08:30am 23.9 SSW 6 9 1010.3 - 18.6 - - 10 - - - -
19/08:00am 23.9 SSW 8 11 1010.0 - 18.6 - - 10 - - - -
19/07:30am 24.0 SSW 6 9 1009.8 - 18.6 Recent precip. Cloudy 10 - - - -
19/07:00am 23.8 SW 9 12 1009.7 - 18.4 - Partly cloudy 10 - - - -
19/06:59am 23.7 SW 9 12 1009.7 - 18.4 - Partly cloudy 9 - - - -

Other Formats:

Comma delimited format used in spreadsheet applications
http://www.bom.gov.au/fwo/IDD60701/IDD60701.95101.axf

JavaScript Object Notation format (JSON) in row-major order
http://www.bom.gov.au/fwo/IDD60701/IDD60701.95101.json